sensor_id;sensor_type;location;lat;lon;timestamp;pressure;altitude;pressure_sealevel;temperature;humidity
7075;BME280;3578;51.568;6.932;2023-03-31T00:00:14;51012.25;;;-144.14;100.00
7075;BME280;3578;51.568;6.932;2023-03-31T00:02:41;50974.19;;;-144.14;100.00
7075;BME280;3578;51.568;6.932;2023-03-31T00:05:09;50966.19;;;-144.14;100.00
7075;BME280;3578;51.568;6.932;2023-03-31T00:07:36;50982.19;;;-144.14;100.00
7075;BME280;3578;51.568;6.932;2023-03-31T00:10:06;51042.28;;;-144.14;100.00
7075;BME280;3578;51.568;6.932;2023-03-31T00:12:35;51012.25;;;-144.14;100.00
7075;BME280;3578;51.568;6.932;2023-03-31T00:15:03;51036.28;;;-144.14;100.00
7075;BME280;3578;51.568;6.932;2023-03-31T00:17:31;50998.22;;;-144.14;100.00
7075;BME280;3578;51.568;6.932;2023-03-31T00:19:58;51032.28;;;-144.14;100.00
7075;BME280;3578;51.568;6.932;2023-03-31T00:22:35;51106.38;;;-144.14;100.00
7075;BME280;3578;51.568;6.932;2023-03-31T00:25:06;51180.47;;;-144.14;100.00
7075;BME280;3578;51.568;6.932;2023-03-31T00:27:33;51238.56;;;-144.14;100.00
7075;BME280;3578;51.568;6.932;2023-03-31T00:30:00;51240.56;;;-144.14;100.00
7075;BME280;3578;51.568;6.932;2023-03-31T00:32:27;51298.66;;;-144.14;100.00
7075;BME280;3578;51.568;6.932;2023-03-31T00:34:53;51282.63;;;-144.14;100.00
7075;BME280;3578;51.568;6.932;2023-03-31T00:37:20;51278.63;;;-144.14;100.00
7075;BME280;3578;51.568;6.932;2023-03-31T00:39:49;51284.63;;;-144.14;100.00
7075;BME280;3578;51.568;6.932;2023-03-31T00:42:18;51278.63;;;-144.14;100.00
7075;BME280;3578;51.568;6.932;2023-03-31T00:45:23;51274.63;;;-144.14;100.00
7075;BME280;3578;51.568;6.932;2023-03-31T00:47:54;51320.69;;;-144.14;100.00
7075;BME280;3578;51.568;6.932;2023-03-31T00:50:26;51308.66;;;-144.14;100.00
7075;BME280;3578;51.568;6.932;2023-03-31T00:52:57;51354.72;;;-144.14;100.00
7075;BME280;3578;51.568;6.932;2023-03-31T00:55:33;51382.78;;;-144.14;100.00
7075;BME280;3578;51.568;6.932;2023-03-31T00:58:04;51464.91;;;-144.14;100.00
7075;BME280;3578;51.568;6.932;2023-03-31T01:00:32;51460.88;;;-144.14;100.00
7075;BME280;3578;51.568;6.932;2023-03-31T01:03:02;51504.97;;;-144.14;99.79
7075;BME280;3578;51.568;6.932;2023-03-31T01:05:35;51520.97;;;-144.14;99.88
7075;BME280;3578;51.568;6.932;2023-03-31T01:08:06;51522.97;;;-144.14;100.00
7075;BME280;3578;51.568;6.932;2023-03-31T01:10:38;51458.88;;;-144.14;100.00
7075;BME280;3578;51.568;6.932;2023-03-31T01:13:09;51366.75;;;-144.14;100.00
7075;BME280;3578;51.568;6.932;2023-03-31T01:15:37;51190.50;;;-144.14;100.00
7075;BME280;3578;51.568;6.932;2023-03-31T01:18:05;51056.31;;;-144.14;100.00
7075;BME280;3578;51.568;6.932;2023-03-31T01:20:45;50962.16;;;-144.14;100.00
7075;BME280;3578;51.568;6.932;2023-03-31T01:24:14;50717.84;;;-144.14;100.00
7075;BME280;3578;51.568;6.932;2023-03-31T01:27:03;50537.63;;;-144.14;100.00
7075;BME280;3578;51.568;6.932;2023-03-31T01:30:03;50473.53;;;-144.14;100.00
7075;BME280;3578;51.568;6.932;2023-03-31T01:33:02;50275.31;;;-144.14;100.00
7075;BME280;3578;51.568;6.932;2023-03-31T01:35:57;50099.09;;;-144.14;100.00
7075;BME280;3578;51.568;6.932;2023-03-31T01:42:06;49750.72;;;-144.14;100.00
7075;BME280;3578;51.568;6.932;2023-03-31T01:44:42;49632.63;;;-144.14;100.00
7075;BME280;3578;51.568;6.932;2023-03-31T01:47:17;49528.50;;;-144.14;100.00
7075;BME280;3578;51.568;6.932;2023-03-31T01:49:55;49432.44;;;-144.14;100.00
7075;BME280;3578;51.568;6.932;2023-03-31T01:52:28;49358.34;;;-144.14;100.00
7075;BME280;3578;51.568;6.932;2023-03-31T01:55:03;49322.31;;;-144.14;100.00
7075;BME280;3578;51.568;6.932;2023-03-31T01:57:36;49250.25;;;-144.14;100.00
7075;BME280;3578;51.568;6.932;2023-03-31T02:00:08;49190.22;;;-144.14;100.00
7075;BME280;3578;51.568;6.932;2023-03-31T02:02:39;49180.19;;;-144.14;100.00
7075;BME280;3578;51.568;6.932;2023-03-31T02:05:14;49176.19;;;-144.14;100.00
7075;BME280;3578;51.568;6.932;2023-03-31T02:07:46;49108.16;;;-144.14;100.00
7075;BME280;3578;51.568;6.932;2023-03-31T02:10:16;49112.16;;;-144.14;100.00
7075;BME280;3578;51.568;6.932;2023-03-31T02:12:46;49092.13;;;-144.14;100.00
7075;BME280;3578;51.568;6.932;2023-03-31T02:15:19;49122.16;;;-144.14;100.00
7075;BME280;3578;51.568;6.932;2023-03-31T02:17:50;49292.31;;;-144.14;100.00
7075;BME280;3578;51.568;6.932;2023-03-31T02:20:21;49340.34;;;-144.14;100.00
7075;BME280;3578;51.568;6.932;2023-03-31T02:22:51;49382.38;;;-144.14;100.00
7075;BME280;3578;51.568;6.932;2023-03-31T02:25:23;49436.44;;;-144.14;100.00
7075;BME280;3578;51.568;6.932;2023-03-31T02:27:54;49470.47;;;-144.14;100.00
7075;BME280;3578;51.568;6.932;2023-03-31T02:30:26;49436.44;;;-144.14;100.00
7075;BME280;3578;51.568;6.932;2023-03-31T02:32:55;49492.47;;;-144.14;100.00
7075;BME280;3578;51.568;6.932;2023-03-31T02:35:22;49478.47;;;-144.14;100.00
7075;BME280;3578;51.568;6.932;2023-03-31T02:37:50;49502.50;;;-144.14;100.00
7075;BME280;3578;51.568;6.932;2023-03-31T02:40:21;49530.50;;;-144.14;100.00
7075;BME280;3578;51.568;6.932;2023-03-31T02:42:53;49538.53;;;-144.14;100.00
7075;BME280;3578;51.568;6.932;2023-03-31T02:45:43;49554.53;;;-144.14;100.00
7075;BME280;3578;51.568;6.932;2023-03-31T02:48:15;49552.53;;;-144.14;100.00
7075;BME280;3578;51.568;6.932;2023-03-31T02:54:08;49564.53;;;-144.14;100.00
7075;BME280;3578;51.568;6.932;2023-03-31T02:57:05;49556.53;;;-144.14;100.00
7075;BME280;3578;51.568;6.932;2023-03-31T02:59:48;49600.59;;;-144.14;100.00
7075;BME280;3578;51.568;6.932;2023-03-31T03:02:26;49604.59;;;-144.14;100.00
7075;BME280;3578;51.568;6.932;2023-03-31T03:05:12;49596.56;;;-144.14;100.00
7075;BME280;3578;51.568;6.932;2023-03-31T03:07:48;49558.53;;;-144.14;100.00
7075;BME280;3578;51.568;6.932;2023-03-31T03:10:26;49528.50;;;-144.14;100.00
7075;BME280;3578;51.568;6.932;2023-03-31T03:12:59;49514.50;;;-144.14;100.00
7075;BME280;3578;51.568;6.932;2023-03-31T03:15:34;49492.47;;;-144.14;100.00
7075;BME280;3578;51.568;6.932;2023-03-31T03:18:03;49452.44;;;-144.14;100.00
7075;BME280;3578;51.568;6.932;2023-03-31T03:20:31;49416.41;;;-144.14;100.00
7075;BME280;3578;51.568;6.932;2023-03-31T03:23:00;49446.44;;;-144.14;100.00
7075;BME280;3578;51.568;6.932;2023-03-31T03:25:27;49408.41;;;-144.14;100.00
7075;BME280;3578;51.568;6.932;2023-03-31T03:27:55;49422.41;;;-144.14;100.00
7075;BME280;3578;51.568;6.932;2023-03-31T03:30:22;49356.34;;;-144.14;100.00
7075;BME280;3578;51.568;6.932;2023-03-31T03:32:51;49360.34;;;-144.14;100.00
7075;BME280;3578;51.568;6.932;2023-03-31T03:35:19;49338.34;;;-144.14;100.00
7075;BME280;3578;51.568;6.932;2023-03-31T03:37:46;49326.31;;;-144.14;100.00
7075;BME280;3578;51.568;6.932;2023-03-31T03:40:13;49344.34;;;-144.14;100.00
7075;BME280;3578;51.568;6.932;2023-03-31T03:42:40;49288.28;;;-144.14;100.00
7075;BME280;3578;51.568;6.932;2023-03-31T03:45:08;49316.31;;;-144.14;100.00
7075;BME280;3578;51.568;6.932;2023-03-31T03:47:36;49274.28;;;-144.14;100.00
7075;BME280;3578;51.568;6.932;2023-03-31T03:50:05;49278.28;;;-144.14;100.00
7075;BME280;3578;51.568;6.932;2023-03-31T03:52:32;49256.28;;;-144.14;100.00
7075;BME280;3578;51.568;6.932;2023-03-31T03:54:59;49258.28;;;-144.14;100.00
7075;BME280;3578;51.568;6.932;2023-03-31T03:57:28;49244.25;;;-144.14;100.00
7075;BME280;3578;51.568;6.932;2023-03-31T03:59:55;49262.28;;;-144.14;100.00
7075;BME280;3578;51.568;6.932;2023-03-31T04:02:22;49296.31;;;-144.14;100.00
7075;BME280;3578;51.568;6.932;2023-03-31T04:04:49;49292.31;;;-144.14;100.00
7075;BME280;3578;51.568;6.932;2023-03-31T04:07:18;49258.28;;;-144.14;100.00
7075;BME280;3578;51.568;6.932;2023-03-31T04:09:45;49280.28;;;-144.14;100.00
7075;BME280;3578;51.568;6.932;2023-03-31T04:12:12;49252.25;;;-144.14;100.00
7075;BME280;3578;51.568;6.932;2023-03-31T04:14:39;49182.19;;;-144.14;100.00
7075;BME280;3578;51.568;6.932;2023-03-31T04:17:06;49162.19;;;-144.14;100.00
7075;BME280;3578;51.568;6.932;2023-03-31T04:19:35;49156.19;;;-144.14;100.00
7075;BME280;3578;51.568;6.932;2023-03-31T04:22:03;49196.22;;;-144.14;100.00
7075;BME280;3578;51.568;6.932;2023-03-31T04:24:31;49252.25;;;-144.14;100.00
7075;BME280;3578;51.568;6.932;2023-03-31T04:26:59;49196.22;;;-144.14;100.00
7075;BME280;3578;51.568;6.932;2023-03-31T04:29:27;49208.22;;;-144.14;100.00
7075;BME280;3578;51.568;6.932;2023-03-31T04:31:58;49196.22;;;-144.14;100.00
7075;BME280;3578;51.568;6.932;2023-03-31T04:34:26;49234.25;;;-144.14;100.00
7075;BME280;3578;51.568;6.932;2023-03-31T04:36:59;49188.22;;;-144.14;100.00
7075;BME280;3578;51.568;6.932;2023-03-31T04:39:27;49144.16;;;-144.14;100.00
7075;BME280;3578;51.568;6.932;2023-03-31T04:41:58;49094.13;;;-144.14;100.00
7075;BME280;3578;51.568;6.932;2023-03-31T04:44:26;49098.13;;;-144.14;100.00
7075;BME280;3578;51.568;6.932;2023-03-31T04:46:53;49122.16;;;-144.14;100.00
7075;BME280;3578;51.568;6.932;2023-03-31T04:49:21;49238.25;;;-144.14;100.00
7075;BME280;3578;51.568;6.932;2023-03-31T04:51:48;49272.28;;;-144.14;100.00
7075;BME280;3578;51.568;6.932;2023-03-31T04:54:15;49288.28;;;-144.14;100.00
7075;BME280;3578;51.568;6.932;2023-03-31T04:56:42;49324.31;;;-144.14;100.00
7075;BME280;3578;51.568;6.932;2023-03-31T04:59:10;49438.44;;;-144.14;100.00
7075;BME280;3578;51.568;6.932;2023-03-31T05:01:38;49526.50;;;-144.14;100.00
7075;BME280;3578;51.568;6.932;2023-03-31T05:04:10;49596.56;;;-144.14;100.00
7075;BME280;3578;51.568;6.932;2023-03-31T05:06:36;49664.66;;;-144.14;100.00
7075;BME280;3578;51.568;6.932;2023-03-31T05:09:04;49774.75;;;-144.14;100.00
7075;BME280;3578;51.568;6.932;2023-03-31T05:11:31;49904.88;;;-144.14;100.00
7075;BME280;3578;51.568;6.932;2023-03-31T05:13:58;49984.97;;;-144.14;100.00
7075;BME280;3578;51.568;6.932;2023-03-31T05:16:26;50085.09;;;-144.14;100.00
7075;BME280;3578;51.568;6.932;2023-03-31T05:18:53;50127.13;;;-144.14;100.00
7075;BME280;3578;51.568;6.932;2023-03-31T05:21:20;50199.22;;;-144.14;100.00
7075;BME280;3578;51.568;6.932;2023-03-31T05:23:48;50279.31;;;-144.14;100.00
7075;BME280;3578;51.568;6.932;2023-03-31T05:26:15;50255.28;;;-144.14;100.00
7075;BME280;3578;51.568;6.932;2023-03-31T05:28:43;50273.31;;;-144.14;100.00
7075;BME280;3578;51.568;6.932;2023-03-31T05:31:11;50289.31;;;-144.14;100.00
7075;BME280;3578;51.568;6.932;2023-03-31T05:33:40;50133.13;;;-144.14;100.00
7075;BME280;3578;51.568;6.932;2023-03-31T05:36:11;50025.03;;;-144.14;100.00
7075;BME280;3578;51.568;6.932;2023-03-31T05:38:39;49920.91;;;-144.14;100.00
7075;BME280;3578;51.568;6.932;2023-03-31T05:41:09;49932.91;;;-144.14;100.00
7075;BME280;3578;51.568;6.932;2023-03-31T05:43:38;49962.94;;;-144.14;100.00
7075;BME280;3578;51.568;6.932;2023-03-31T05:46:05;50047.03;;;-144.14;100.00
7075;BME280;3578;51.568;6.932;2023-03-31T05:48:34;50213.22;;;-144.14;100.00
7075;BME280;3578;51.568;6.932;2023-03-31T05:51:03;50285.31;;;-144.14;100.00
7075;BME280;3578;51.568;6.932;2023-03-31T05:53:31;50297.31;;;-144.14;100.00
7075;BME280;3578;51.568;6.932;2023-03-31T05:56:00;50419.47;;;-144.14;100.00
7075;BME280;3578;51.568;6.932;2023-03-31T05:58:28;50559.66;;;-144.14;100.00
7075;BME280;3578;51.568;6.932;2023-03-31T06:01:04;50571.66;;;-144.14;100.00
7075;BME280;3578;51.568;6.932;2023-03-31T06:03:32;50493.56;;;-144.14;100.00
7075;BME280;3578;51.568;6.932;2023-03-31T06:05:59;50521.59;;;-144.14;100.00
7075;BME280;3578;51.568;6.932;2023-03-31T06:08:28;50615.72;;;-144.14;100.00
7075;BME280;3578;51.568;6.932;2023-03-31T06:10:55;50617.72;;;-144.14;100.00
7075;BME280;3578;51.568;6.932;2023-03-31T06:13:22;50679.78;;;-144.14;100.00
7075;BME280;3578;51.568;6.932;2023-03-31T06:15:54;50749.88;;;-144.14;100.00
7075;BME280;3578;51.568;6.932;2023-03-31T06:18:21;50832.00;;;-144.14;100.00
7075;BME280;3578;51.568;6.932;2023-03-31T06:20:48;50765.91;;;-144.14;100.00
7075;BME280;3578;51.568;6.932;2023-03-31T06:23:15;50783.94;;;-144.14;100.00
7075;BME280;3578;51.568;6.932;2023-03-31T06:25:43;50727.84;;;-144.14;100.00
7075;BME280;3578;51.568;6.932;2023-03-31T06:28:11;50725.84;;;-144.14;100.00
7075;BME280;3578;51.568;6.932;2023-03-31T06:30:38;50751.88;;;-144.14;100.00
7075;BME280;3578;51.568;6.932;2023-03-31T06:33:05;50687.81;;;-144.14;100.00
7075;BME280;3578;51.568;6.932;2023-03-31T06:35:32;50657.78;;;-144.14;100.00
7075;BME280;3578;51.568;6.932;2023-03-31T06:37:59;50629.72;;;-144.14;100.00
7075;BME280;3578;51.568;6.932;2023-03-31T06:40:26;50593.69;;;-144.14;100.00
7075;BME280;3578;51.568;6.932;2023-03-31T06:42:55;50623.72;;;-144.14;100.00
7075;BME280;3578;51.568;6.932;2023-03-31T06:45:22;50669.78;;;-144.14;100.00
7075;BME280;3578;51.568;6.932;2023-03-31T06:47:49;50687.81;;;-144.14;100.00
7075;BME280;3578;51.568;6.932;2023-03-31T06:50:16;50669.78;;;-144.14;100.00
7075;BME280;3578;51.568;6.932;2023-03-31T06:52:43;50637.75;;;-144.14;100.00
7075;BME280;3578;51.568;6.932;2023-03-31T06:55:10;50599.69;;;-144.14;100.00
7075;BME280;3578;51.568;6.932;2023-03-31T06:57:40;50573.66;;;-144.14;100.00
7075;BME280;3578;51.568;6.932;2023-03-31T07:00:11;50501.56;;;-144.14;100.00
7075;BME280;3578;51.568;6.932;2023-03-31T07:02:38;50481.53;;;-144.14;100.00
7075;BME280;3578;51.568;6.932;2023-03-31T07:05:06;50357.41;;;-144.14;100.00
7075;BME280;3578;51.568;6.932;2023-03-31T07:07:33;50283.31;;;-144.14;100.00
7075;BME280;3578;51.568;6.932;2023-03-31T07:10:00;50233.25;;;-144.14;100.00
7075;BME280;3578;51.568;6.932;2023-03-31T07:12:28;50263.28;;;-144.14;100.00
7075;BME280;3578;51.568;6.932;2023-03-31T07:14:58;50357.41;;;-144.14;100.00
7075;BME280;3578;51.568;6.932;2023-03-31T07:17:26;50313.34;;;-144.14;100.00
7075;BME280;3578;51.568;6.932;2023-03-31T07:19:53;50255.28;;;-144.14;100.00
7075;BME280;3578;51.568;6.932;2023-03-31T07:22:20;50175.19;;;-144.14;100.00
7075;BME280;3578;51.568;6.932;2023-03-31T07:24:47;50061.06;;;-144.14;100.00
7075;BME280;3578;51.568;6.932;2023-03-31T07:27:14;50021.00;;;-144.14;100.00
7075;BME280;3578;51.568;6.932;2023-03-31T07:29:41;49938.94;;;-144.14;100.00
7075;BME280;3578;51.568;6.932;2023-03-31T07:32:09;49850.84;;;-144.14;100.00
7075;BME280;3578;51.568;6.932;2023-03-31T07:34:39;49760.75;;;-144.14;100.00
7075;BME280;3578;51.568;6.932;2023-03-31T07:37:06;49702.69;;;-144.14;100.00
7075;BME280;3578;51.568;6.932;2023-03-31T07:39:34;49670.66;;;-144.14;100.00
7075;BME280;3578;51.568;6.932;2023-03-31T07:42:02;49650.63;;;-144.14;100.00
7075;BME280;3578;51.568;6.932;2023-03-31T07:44:31;49686.66;;;-144.14;100.00
7075;BME280;3578;51.568;6.932;2023-03-31T07:46:58;49650.63;;;-144.14;100.00
7075;BME280;3578;51.568;6.932;2023-03-31T07:49:29;49656.63;;;-144.14;100.00
7075;BME280;3578;51.568;6.932;2023-03-31T07:51:57;49634.63;;;-144.14;100.00
7075;BME280;3578;51.568;6.932;2023-03-31T07:54:24;49558.53;;;-144.14;100.00
7075;BME280;3578;51.568;6.932;2023-03-31T07:56:52;49570.56;;;-144.14;100.00
7075;BME280;3578;51.568;6.932;2023-03-31T07:59:19;49560.53;;;-144.14;100.00
7075;BME280;3578;51.568;6.932;2023-03-31T08:01:47;49540.53;;;-144.14;100.00
7075;BME280;3578;51.568;6.932;2023-03-31T08:04:13;49502.50;;;-144.14;100.00
7075;BME280;3578;51.568;6.932;2023-03-31T08:06:40;49332.34;;;-144.14;100.00
7075;BME280;3578;51.568;6.932;2023-03-31T08:09:09;49396.38;;;-144.14;100.00
7075;BME280;3578;51.568;6.932;2023-03-31T08:11:36;49418.41;;;-144.14;100.00
7075;BME280;3578;51.568;6.932;2023-03-31T08:14:03;49492.47;;;-144.14;100.00
7075;BME280;3578;51.568;6.932;2023-03-31T08:16:30;49482.47;;;-144.14;100.00
7075;BME280;3578;51.568;6.932;2023-03-31T08:18:57;49474.47;;;-144.14;100.00
7075;BME280;3578;51.568;6.932;2023-03-31T08:21:24;49462.44;;;-144.14;100.00
7075;BME280;3578;51.568;6.932;2023-03-31T08:23:53;49412.41;;;-144.14;100.00
7075;BME280;3578;51.568;6.932;2023-03-31T08:26:22;49432.44;;;-144.14;100.00
7075;BME280;3578;51.568;6.932;2023-03-31T08:28:50;49474.47;;;-144.14;100.00
7075;BME280;3578;51.568;6.932;2023-03-31T08:31:19;49576.56;;;-144.14;100.00
7075;BME280;3578;51.568;6.932;2023-03-31T08:33:48;49644.63;;;-144.14;100.00
7075;BME280;3578;51.568;6.932;2023-03-31T08:36:15;49692.66;;;-144.14;100.00
7075;BME280;3578;51.568;6.932;2023-03-31T08:38:43;49798.78;;;-144.14;100.00
7075;BME280;3578;51.568;6.932;2023-03-31T08:41:31;49872.84;;;-144.14;100.00
7075;BME280;3578;51.568;6.932;2023-03-31T08:44:06;49852.84;;;-144.14;100.00
7075;BME280;3578;51.568;6.932;2023-03-31T08:46:38;49918.91;;;-144.14;100.00
7075;BME280;3578;51.568;6.932;2023-03-31T08:49:06;49880.88;;;-144.14;100.00
7075;BME280;3578;51.568;6.932;2023-03-31T08:51:36;49862.84;;;-144.14;100.00
7075;BME280;3578;51.568;6.932;2023-03-31T08:54:10;49922.91;;;-144.14;100.00
7075;BME280;3578;51.568;6.932;2023-03-31T08:56:44;49878.88;;;-144.14;100.00
7075;BME280;3578;51.568;6.932;2023-03-31T08:59:20;49832.81;;;-144.14;100.00
7075;BME280;3578;51.568;6.932;2023-03-31T09:01:59;49700.69;;;-144.14;100.00
7075;BME280;3578;51.568;6.932;2023-03-31T09:05:10;49564.53;;;-144.14;100.00
7075;BME280;3578;51.568;6.932;2023-03-31T09:07:54;49596.56;;;-144.14;100.00
7075;BME280;3578;51.568;6.932;2023-03-31T09:10:38;49660.63;;;-144.14;100.00
7075;BME280;3578;51.568;6.932;2023-03-31T09:13:26;49668.66;;;-144.14;100.00
7075;BME280;3578;51.568;6.932;2023-03-31T09:16:01;49720.69;;;-144.14;100.00
7075;BME280;3578;51.568;6.932;2023-03-31T09:18:33;49776.75;;;-144.14;100.00
7075;BME280;3578;51.568;6.932;2023-03-31T09:21:06;49760.75;;;-144.14;100.00
7075;BME280;3578;51.568;6.932;2023-03-31T09:23:43;49772.75;;;-144.14;100.00
7075;BME280;3578;51.568;6.932;2023-03-31T09:26:21;49804.78;;;-144.14;100.00
7075;BME280;3578;51.568;6.932;2023-03-31T09:28:53;49798.78;;;-144.14;100.00
7075;BME280;3578;51.568;6.932;2023-03-31T09:31:23;49792.78;;;-144.14;100.00
7075;BME280;3578;51.568;6.932;2023-03-31T09:33:53;49614.59;;;-144.14;100.00
7075;BME280;3578;51.568;6.932;2023-03-31T09:36:24;49468.47;;;-144.14;100.00
7075;BME280;3578;51.568;6.932;2023-03-31T09:38:51;49584.56;;;-144.14;100.00
7075;BME280;3578;51.568;6.932;2023-03-31T09:41:19;49622.59;;;-144.14;100.00
7075;BME280;3578;51.568;6.932;2023-03-31T09:43:47;49588.56;;;-144.14;100.00
7075;BME280;3578;51.568;6.932;2023-03-31T09:46:22;49520.50;;;-144.14;100.00
7075;BME280;3578;51.568;6.932;2023-03-31T09:48:57;49352.34;;;-144.14;100.00
7075;BME280;3578;51.568;6.932;2023-03-31T09:51:29;49302.31;;;-144.14;100.00
7075;BME280;3578;51.568;6.932;2023-03-31T09:54:01;49268.28;;;-144.14;100.00
7075;BME280;3578;51.568;6.932;2023-03-31T09:56:44;49414.41;;;-144.14;100.00
7075;BME280;3578;51.568;6.932;2023-03-31T09:59:15;49576.56;;;-144.14;100.00
7075;BME280;3578;51.568;6.932;2023-03-31T10:01:48;49796.78;;;-144.14;100.00
7075;BME280;3578;51.568;6.932;2023-03-31T10:04:21;49912.91;;;-144.14;100.00
7075;BME280;3578;51.568;6.932;2023-03-31T10:06:49;50023.00;;;-144.14;100.00
7075;BME280;3578;51.568;6.932;2023-03-31T10:09:18;50215.22;;;-144.14;100.00
7075;BME280;3578;51.568;6.932;2023-03-31T10:12:00;50395.44;;;-144.14;100.00
7075;BME280;3578;51.568;6.932;2023-03-31T10:14:37;50481.53;;;-144.14;100.00
7075;BME280;3578;51.568;6.932;2023-03-31T10:17:13;50629.72;;;-144.14;100.00
7075;BME280;3578;51.568;6.932;2023-03-31T10:19:47;50721.84;;;-144.14;100.00
7075;BME280;3578;51.568;6.932;2023-03-31T10:22:26;50783.94;;;-144.14;99.96
7075;BME280;3578;51.568;6.932;2023-03-31T10:24:54;50701.81;;;-144.14;100.00
7075;BME280;3578;51.568;6.932;2023-03-31T10:27:33;50661.78;;;-144.14;100.00
7075;BME280;3578;51.568;6.932;2023-03-31T10:30:02;50665.78;;;-144.14;100.00
7075;BME280;3578;51.568;6.932;2023-03-31T10:32:32;50515.59;;;-144.14;100.00
7075;BME280;3578;51.568;6.932;2023-03-31T10:35:06;50409.47;;;-144.14;100.00
7075;BME280;3578;51.568;6.932;2023-03-31T10:37:35;50303.34;;;-144.14;100.00
7075;BME280;3578;51.568;6.932;2023-03-31T10:40:12;50413.47;;;-144.14;100.00
7075;BME280;3578;51.568;6.932;2023-03-31T10:42:43;50617.72;;;-144.14;100.00
7075;BME280;3578;51.568;6.932;2023-03-31T10:45:23;50783.94;;;-144.14;99.89
7075;BME280;3578;51.568;6.932;2023-03-31T10:47:55;50946.16;;;-144.14;98.54
7075;BME280;3578;51.568;6.932;2023-03-31T10:50:27;50898.09;;;-144.14;98.64
7075;BME280;3578;51.568;6.932;2023-03-31T10:53:02;51032.28;;;-144.14;97.78
7075;BME280;3578;51.568;6.932;2023-03-31T10:55:35;51100.38;;;-144.14;97.56
7075;BME280;3578;51.568;6.932;2023-03-31T10:58:18;51122.41;;;-144.14;97.29
7075;BME280;3578;51.568;6.932;2023-03-31T11:01:03;51180.47;;;-144.14;96.95
7075;BME280;3578;51.568;6.932;2023-03-31T11:06:30;51270.59;;;-144.14;95.59
7075;BME280;3578;51.568;6.932;2023-03-31T11:09:12;51320.69;;;-144.14;94.79
7075;BME280;3578;51.568;6.932;2023-03-31T11:11:56;51334.69;;;-144.14;94.46
7075;BME280;3578;51.568;6.932;2023-03-31T11:14:38;51342.72;;;-144.14;94.65
7075;BME280;3578;51.568;6.932;2023-03-31T11:17:19;51382.78;;;-144.14;93.60
7075;BME280;3578;51.568;6.932;2023-03-31T11:19:59;51388.78;;;-144.14;93.64
7075;BME280;3578;51.568;6.932;2023-03-31T11:22:36;51404.81;;;-144.14;93.61
7075;BME280;3578;51.568;6.932;2023-03-31T11:25:18;51378.75;;;-144.14;94.74
7075;BME280;3578;51.568;6.932;2023-03-31T11:28:23;51340.72;;;-144.14;95.21
7075;BME280;3578;51.568;6.932;2023-03-31T11:31:02;51406.81;;;-144.14;93.89
7075;BME280;3578;51.568;6.932;2023-03-31T11:33:50;51512.97;;;-144.14;92.17
7075;BME280;3578;51.568;6.932;2023-03-31T11:36:37;51687.25;;;-144.14;89.29
7075;BME280;3578;51.568;6.932;2023-03-31T11:39:21;51695.25;;;-144.14;89.84
7075;BME280;3578;51.568;6.932;2023-03-31T11:41:50;51755.34;;;-144.14;89.55
7075;BME280;3578;51.568;6.932;2023-03-31T11:44:21;51827.47;;;-144.14;87.49
7075;BME280;3578;51.568;6.932;2023-03-31T11:46:53;51975.72;;;-144.14;86.39
7075;BME280;3578;51.568;6.932;2023-03-31T11:49:25;52131.97;;;-144.14;85.61
7075;BME280;3578;51.568;6.932;2023-03-31T11:51:57;52320.31;;;-144.14;85.27
7075;BME280;3578;51.568;6.932;2023-03-31T11:54:31;52474.56;;;-144.14;82.82
7075;BME280;3578;51.568;6.932;2023-03-31T11:57:05;52488.59;;;-144.14;84.82
7075;BME280;3578;51.568;6.932;2023-03-31T11:59:36;52564.75;;;-144.14;82.98
7075;BME280;3578;51.568;6.932;2023-03-31T12:02:15;52626.84;;;-144.14;82.17
7075;BME280;3578;51.568;6.932;2023-03-31T12:04:47;52630.88;;;-144.14;82.98
7075;BME280;3578;51.568;6.932;2023-03-31T12:07:23;52664.94;;;-144.14;83.12
7075;BME280;3578;51.568;6.932;2023-03-31T12:09:59;52733.06;;;-144.14;81.92
7075;BME280;3578;51.568;6.932;2023-03-31T12:12:35;52749.09;;;-144.14;79.88
7075;BME280;3578;51.568;6.932;2023-03-31T12:15:13;52785.16;;;-144.14;81.46
7075;BME280;3578;51.568;6.932;2023-03-31T12:17:48;52797.19;;;-144.14;80.38
7075;BME280;3578;51.568;6.932;2023-03-31T12:20:28;52815.22;;;-144.14;81.05
7075;BME280;3578;51.568;6.932;2023-03-31T12:23:00;52759.09;;;-144.14;81.32
7075;BME280;3578;51.568;6.932;2023-03-31T12:25:41;52777.13;;;-144.14;82.50
7075;BME280;3578;51.568;6.932;2023-03-31T12:28:12;52749.09;;;-144.14;81.79
7075;BME280;3578;51.568;6.932;2023-03-31T12:30:40;52773.13;;;-144.14;82.88
7075;BME280;3578;51.568;6.932;2023-03-31T12:33:15;52769.13;;;-144.14;82.63
7075;BME280;3578;51.568;6.932;2023-03-31T12:35:59;52769.13;;;-144.14;84.09
7075;BME280;3578;51.568;6.932;2023-03-31T12:38:54;52735.06;;;-144.14;85.09
7075;BME280;3578;51.568;6.932;2023-03-31T12:41:31;52735.06;;;-144.14;84.40
7075;BME280;3578;51.568;6.932;2023-03-31T12:44:13;52819.22;;;-144.14;83.17
7075;BME280;3578;51.568;6.932;2023-03-31T12:47:02;52789.16;;;-144.14;83.81
7075;BME280;3578;51.568;6.932;2023-03-31T12:49:50;52785.16;;;-144.14;84.11
7075;BME280;3578;51.568;6.932;2023-03-31T12:52:24;52815.22;;;-144.14;82.88
7075;BME280;3578;51.568;6.932;2023-03-31T12:55:22;52881.34;;;-144.14;81.52
7075;BME280;3578;51.568;6.932;2023-03-31T12:58:40;52879.34;;;-144.14;79.93
7075;BME280;3578;51.568;6.932;2023-03-31T13:01:16;52907.38;;;-144.14;79.76
7075;BME280;3578;51.568;6.932;2023-03-31T13:03:50;52921.41;;;-144.14;78.95
7075;BME280;3578;51.568;6.932;2023-03-31T13:06:53;52875.31;;;-144.14;80.06
7075;BME280;3578;51.568;6.932;2023-03-31T13:09:47;52983.53;;;-144.14;80.59
7075;BME280;3578;51.568;6.932;2023-03-31T13:12:20;53049.66;;;-144.14;78.82
7075;BME280;3578;51.568;6.932;2023-03-31T13:14:51;53065.69;;;-144.14;77.96
7075;BME280;3578;51.568;6.932;2023-03-31T13:17:26;53115.81;;;-144.14;78.68
7075;BME280;3578;51.568;6.932;2023-03-31T13:19:56;53101.78;;;-144.14;78.26
7075;BME280;3578;51.568;6.932;2023-03-31T13:22:44;53115.81;;;-144.14;78.96
7075;BME280;3578;51.568;6.932;2023-03-31T13:25:46;53121.81;;;-144.14;76.42
7075;BME280;3578;51.568;6.932;2023-03-31T13:28:33;53137.84;;;-144.14;76.09
7075;BME280;3578;51.568;6.932;2023-03-31T13:31:07;53121.81;;;-144.14;75.76